»·PEaware :: DAL1308 KSLC-KSFO

DAL1308 :: KSLC-KSFO

FLIGHT INFORMATION

Flight Status: Arrived
Operator:
Delta Air Lines
More flights by this operator :: More flights under this callsign
Pilot: Paul P. (20696)
Aircraft: MCDONNELL-DOUGLAS MD-82
(MD82)
More flights by this aircraft type
Origin: KSLC Salt Lake City Intl
United States
Destination: KSFO San Francisco Intl
United States
More flights between these airports :: More routes between these airports
Route: DEZRT1 BAM LLC LEGGS BDEGA3
File this flight plan on PilotEdge
Remarks: PBN / A1B2 DOF / 181116 REG / N995DL EET / KZOA0044 CODE / A51E4E OPR / DAL PER / C RMK / TCAS SIMBRIEF
Altitude:
(Current/Filed)
34,000ft
Speed:
(Current/Filed)
439kts
Departed: 16-Nov-18 01:59 PM
Arrived: 16-Nov-18 03:38 PM
Distance/Time
Traveled:
519nm/1:38
Distance/Time
To Go:
Arrived

Flight Plot

Page will automatically refresh every two minutes.

Flight plan parsing failed; only flown route is shown


Map Options




Map Legend


Flown Route
Filed Route
Departure Airport
Arrival Airport
Navaid (VOR, NDB)
Fix

Horizontal Profiles

Position Reports

Time Latitude Longitude Heading Altitude Ground
Speed
16-Nov-18 13:25 40.787938 -111.979053 84 4236ft 0kts
16-Nov-18 13:26 40.787938 -111.979053 84 4236ft 0kts
16-Nov-18 13:27 40.787938 -111.979053 84 4236ft 0kts
16-Nov-18 13:28 40.787938 -111.979053 84 4236ft 0kts
16-Nov-18 13:29 40.787938 -111.979053 84 4236ft 0kts
16-Nov-18 13:30 40.787938 -111.979053 84 4236ft 0kts
16-Nov-18 13:31 40.787938 -111.979053 84 4236ft 0kts
16-Nov-18 13:32 40.787938 -111.979053 84 4236ft 0kts
16-Nov-18 13:33 40.787938 -111.979053 84 4236ft 0kts
16-Nov-18 13:34 40.787938 -111.979053 84 4236ft 0kts
16-Nov-18 13:35 40.787938 -111.979053 84 4236ft 0kts
16-Nov-18 13:36 40.787938 -111.979053 84 4236ft 0kts
16-Nov-18 13:37 40.787938 -111.979053 84 4236ft 0kts
16-Nov-18 13:38 40.787938 -111.979053 84 4236ft 0kts
16-Nov-18 13:39 40.787938 -111.979053 84 4236ft 0kts
16-Nov-18 13:40 40.787928 -111.979188 84 4236ft 2kts
16-Nov-18 13:41 40.787861 -111.980038 84 4236ft 2kts
16-Nov-18 13:42 40.787846 -111.980231 84 4236ft 0kts
16-Nov-18 13:43 40.787846 -111.980231 84 4236ft 0kts
16-Nov-18 13:44 40.787846 -111.980231 84 4236ft 0kts
16-Nov-18 13:45 40.787846 -111.980231 84 4236ft 0kts
16-Nov-18 13:46 40.787846 -111.980231 84 4236ft 0kts
16-Nov-18 13:47 40.787846 -111.980231 84 4236ft 0kts
16-Nov-18 13:48 40.787846 -111.980231 84 4236ft 0kts
16-Nov-18 13:49 40.787846 -111.980231 84 4236ft 0kts
16-Nov-18 13:50 40.787846 -111.980231 84 4236ft 0kts
16-Nov-18 13:51 40.787901 -111.980068 59 4236ft 0kts
16-Nov-18 13:52 40.788613 -111.979899 3 4236ft 9kts
16-Nov-18 13:53 40.790220 -111.979626 20 4236ft 7kts
16-Nov-18 13:54 40.791023 -111.979501 356 4236ft 0kts
16-Nov-18 13:55 40.791995 -111.979233 68 4236ft 8kts
16-Nov-18 13:56 40.791120 -111.977267 174 4236ft 14kts
16-Nov-18 13:57 40.784882 -111.976569 174 4236ft 15kts
16-Nov-18 13:58 40.780227 -111.976025 172 4236ft 17kts
16-Nov-18 13:59 40.776961 -111.975213 174 4236ft 11kts
16-Nov-18 14:00 40.774616 -111.974876 154 4236ft 0kts
16-Nov-18 14:01 40.775316 -111.973345 14 4236ft 7kts
16-Nov-18 14:02 40.799818 -111.975956 355 4329ft 180kts
16-Nov-18 14:03 40.844682 -111.985427 296 7132ft 170kts
16-Nov-18 14:04 40.849690 -112.047370 271 9229ft 169kts
16-Nov-18 14:05 40.851509 -112.117232 271 10099ft 233kts
16-Nov-18 14:06 40.852691 -112.208557 272 11894ft 256kts
16-Nov-18 14:07 40.860883 -112.311969 280 12694ft 309kts
16-Nov-18 14:08 40.872135 -112.427164 276 14585ft 321kts
16-Nov-18 14:09 40.867146 -112.548981 265 14808ft 335kts
16-Nov-18 14:10 40.856207 -112.671020 265 16557ft 339kts
16-Nov-18 14:11 40.845675 -112.796380 265 18566ft 348kts
16-Nov-18 14:12 40.841464 -112.925802 272 20423ft 358kts
16-Nov-18 14:13 40.843127 -113.059168 272 22116ft 368kts
16-Nov-18 14:14 40.843313 -113.195632 271 23615ft 377kts
16-Nov-18 14:15 40.843314 -113.267759 271 24345ft 381kts
16-Nov-18 14:16 40.843386 -113.409131 271 25630ft 389kts
16-Nov-18 14:17 40.842911 -113.553092 271 26795ft 395kts
16-Nov-18 14:18 40.842850 -113.699527 271 27838ft 401kts
16-Nov-18 14:19 40.842674 -113.847773 271 28777ft 407kts
16-Nov-18 14:20 40.841572 -113.998492 270 29658ft 412kts
16-Nov-18 14:21 40.840360 -114.150663 270 30573ft 413kts
16-Nov-18 14:22 40.839030 -114.299728 271 31746ft 404kts
16-Nov-18 14:23 40.837741 -114.447426 271 32605ft 401kts
16-Nov-18 14:24 40.836470 -114.594713 271 33400ft 398kts
16-Nov-18 14:25 40.835169 -114.740362 271 34037ft 397kts
16-Nov-18 14:26 40.821097 -114.887328 262 34177ft 410kts
16-Nov-18 14:27 40.801470 -115.037649 263 34173ft 420kts
16-Nov-18 14:28 40.783854 -115.191530 263 34171ft 428kts
16-Nov-18 14:29 40.765824 -115.347409 263 34168ft 429kts
16-Nov-18 14:30 40.747570 -115.502928 263 34165ft 429kts
16-Nov-18 14:31 40.729004 -115.658244 263 34166ft 429kts
16-Nov-18 14:32 40.710322 -115.813471 263 34166ft 429kts
16-Nov-18 14:33 40.691503 -115.969147 263 34167ft 429kts
16-Nov-18 14:34 40.671983 -116.124253 263 34170ft 431kts
16-Nov-18 14:35 40.652474 -116.280058 263 34174ft 430kts
16-Nov-18 14:36 40.632931 -116.436042 263 34179ft 431kts
16-Nov-18 14:37 40.612423 -116.591193 262 34183ft 431kts
16-Nov-18 14:38 40.591874 -116.746740 263 34185ft 431kts
16-Nov-18 14:39 40.572554 -116.902016 263 34186ft 431kts
16-Nov-18 14:40 40.538798 -117.054397 252 34186ft 435kts
16-Nov-18 14:41 40.496467 -117.203005 253 34185ft 435kts
16-Nov-18 14:42 40.456540 -117.353310 253 34185ft 435kts
16-Nov-18 14:43 40.417320 -117.503909 254 34185ft 435kts
16-Nov-18 14:44 40.377185 -117.653848 253 34185ft 436kts
16-Nov-18 14:45 40.336906 -117.804007 253 34185ft 436kts
16-Nov-18 14:46 40.296691 -117.953880 253 34185ft 437kts
16-Nov-18 14:47 40.256086 -118.103987 253 34185ft 436kts
16-Nov-18 14:48 40.215555 -118.253805 253 34185ft 436kts
16-Nov-18 14:49 40.175013 -118.403722 253 34186ft 437kts
16-Nov-18 14:50 40.134128 -118.552750 252 34186ft 436kts
16-Nov-18 14:51 40.089834 -118.700510 250 34186ft 437kts
16-Nov-18 14:52 40.044443 -118.847528 251 34187ft 436kts
16-Nov-18 14:53 39.999963 -118.994902 251 34188ft 436kts
16-Nov-18 14:54 39.955963 -119.141733 251 34188ft 431kts
16-Nov-18 14:55 39.911412 -119.287034 250 34188ft 434kts
16-Nov-18 14:56 39.866433 -119.432880 250 34185ft 433kts
16-Nov-18 14:57 39.821446 -119.578499 250 34183ft 434kts
16-Nov-18 14:58 39.776454 -119.724670 250 34180ft 435kts
16-Nov-18 14:59 39.731324 -119.870393 250 34183ft 434kts
16-Nov-18 15:00 39.686009 -120.015751 250 34185ft 434kts
16-Nov-18 15:01 39.640191 -120.160801 249 34196ft 434kts
16-Nov-18 15:02 39.594211 -120.305374 250 34200ft 433kts
16-Nov-18 15:03 39.548337 -120.449294 250 34199ft 432kts
16-Nov-18 15:04 39.502562 -120.592897 250 34196ft 431kts
16-Nov-18 15:05 39.456681 -120.735888 249 34185ft 430kts
16-Nov-18 15:06 39.410244 -120.878203 249 34175ft 428kts
16-Nov-18 15:07 39.364029 -121.020275 249 34153ft 428kts
16-Nov-18 15:08 39.308644 -121.156222 234 34090ft 433kts
16-Nov-18 15:09 39.227761 -121.271703 230 34075ft 434kts
16-Nov-18 15:10 39.147470 -121.387444 232 34058ft 432kts
16-Nov-18 15:11 39.069840 -121.505702 233 34059ft 430kts
16-Nov-18 15:12 38.992805 -121.623201 232 34064ft 430kts
16-Nov-18 15:13 38.915853 -121.740191 233 34062ft 428kts
16-Nov-18 15:14 38.839147 -121.856721 233 34062ft 426kts
16-Nov-18 15:15 38.762454 -121.972728 233 34066ft 425kts
16-Nov-18 15:16 38.685729 -122.087317 233 34062ft 421kts
16-Nov-18 15:17 38.612505 -122.197087 233 32142ft 401kts
16-Nov-18 15:18 38.538889 -122.306093 232 29794ft 426kts
16-Nov-18 15:19 38.463195 -122.417716 231 27812ft 395kts
16-Nov-18 15:20 38.390353 -122.524565 231 26251ft 408kts
16-Nov-18 15:21 38.317759 -122.629918 230 24251ft 387kts
16-Nov-18 15:22 38.247273 -122.734102 230 23101ft 383kts
16-Nov-18 15:23 38.153803 -122.769308 165 21025ft 368kts
16-Nov-18 15:24 38.056544 -122.724727 161 18174ft 375kts
16-Nov-18 15:25 37.957183 -122.688865 166 15448ft 369kts
16-Nov-18 15:26 37.867713 -122.647437 142 14548ft 349kts
16-Nov-18 15:27 37.796020 -122.566695 138 12033ft 345kts
16-Nov-18 15:28 37.727863 -122.491234 141 10997ft 297kts
16-Nov-18 15:29 37.664396 -122.430218 143 9803ft 278kts
16-Nov-18 15:30 37.603111 -122.372216 143 8607ft 272kts
16-Nov-18 15:31 37.543055 -122.315511 143 7332ft 266kts
16-Nov-18 15:32 37.484337 -122.260192 143 6497ft 257kts
16-Nov-18 15:33 37.434395 -122.193121 124 6525ft 265kts
16-Nov-18 15:34 37.408299 -122.109686 80 5148ft 258kts
16-Nov-18 15:35 37.463948 -122.070786 339 4086ft 245kts
16-Nov-18 15:36 37.514288 -122.124140 302 4020ft 235kts
16-Nov-18 15:37 37.541810 -122.192915 297 2978ft 227kts
16-Nov-18 15:38 37.569700 -122.258351 298 1820ft 187kts
16-Nov-18 15:39 37.591697 -122.310550 297 849ft 150kts
16-Nov-18 15:40 37.610259 -122.354660 298 141ft 140kts
16-Nov-18 15:41 37.620012 -122.378265 277 22ft 14kts
16-Nov-18 15:42 37.619128 -122.379847 204 22ft 11kts
16-Nov-18 15:43 37.615522 -122.380489 226 22ft 10kts
16-Nov-18 15:44 37.615141 -122.381753 261 22ft 1kts
16-Nov-18 15:45 37.615129 -122.381864 261 22ft 0kts

Navigation Log

Ident Type
Flight plan parsing failed, navigation log unavailable